createdAt,value
2017-04-16T04:00:37.896Z,73.1
2017-04-16T04:01:03.395Z,73.1
2017-04-16T04:01:28.906Z,73.1
2017-04-16T04:01:54.409Z,73.48
2017-04-16T04:02:19.892Z,73.38
2017-04-16T04:02:45.371Z,73.48
2017-04-16T04:03:10.882Z,73.19
2017-04-16T04:03:36.377Z,73.29
2017-04-16T04:04:01.866Z,73.48
2017-04-16T04:04:27.381Z,73.19
2017-04-16T04:04:52.910Z,73.1
2017-04-16T04:05:18.433Z,73.67
2017-04-16T04:05:43.913Z,73.1
2017-04-16T04:06:09.427Z,73.57
2017-04-16T04:06:34.947Z,73.76
2017-04-16T04:07:00.445Z,73.1
2017-04-16T04:07:25.941Z,73.76
2017-04-16T04:07:51.410Z,73.57
2017-04-16T04:08:16.931Z,73.38
2017-04-16T04:08:42.440Z,73.19
2017-04-16T04:09:07.932Z,73.1
2017-04-16T04:09:33.437Z,73.57
2017-04-16T04:09:58.956Z,73.57
2017-04-16T04:10:24.444Z,73.76
2017-04-16T04:10:49.919Z,73.76
2017-04-16T04:11:15.459Z,73.86
2017-04-16T04:11:40.943Z,74.05
2017-04-16T04:12:06.445Z,73.67
2017-04-16T04:12:31.930Z,73.57
2017-04-16T04:12:57.404Z,73.67
2017-04-16T04:13:22.910Z,73.38
2017-04-16T04:13:48.416Z,73.48
2017-04-16T04:14:13.929Z,73.1
2017-04-16T04:14:39.423Z,73
2017-04-16T04:15:04.993Z,73.48
2017-04-16T04:15:30.498Z,73.38
2017-04-16T04:15:55.987Z,73.57
2017-04-16T04:16:21.450Z,73.29
2017-04-16T04:16:46.949Z,73.57
2017-04-16T04:17:12.528Z,73.67
2017-04-16T04:17:38.041Z,73.38
2017-04-16T04:18:03.566Z,73.67
2017-04-16T04:18:29.042Z,73.86
2017-04-16T04:18:54.572Z,73.67
2017-04-16T04:19:20.069Z,73.67
2017-04-16T04:19:45.589Z,73.76
2017-04-16T04:20:11.072Z,73.29
2017-04-16T04:20:36.563Z,73.19
2017-04-16T04:21:02.058Z,73.67
2017-04-16T04:21:27.528Z,73.76
2017-04-16T04:21:53.020Z,73.57
2017-04-16T04:22:18.499Z,73.57
2017-04-16T04:22:44.042Z,73.57
2017-04-16T04:23:09.561Z,73.57
2017-04-16T04:23:35.047Z,73.57
2017-04-16T04:24:00.553Z,73.48
2017-04-16T04:24:26.093Z,73.29
2017-04-16T04:24:51.625Z,73.48
2017-04-16T04:25:17.165Z,73.48
2017-04-16T04:25:42.717Z,73.38
2017-04-16T04:26:08.200Z,73.19
2017-04-16T04:26:33.697Z,73.29
2017-04-16T04:26:59.163Z,73.38
2017-04-16T04:27:24.645Z,73.19
2017-04-16T04:27:50.130Z,73.29
2017-04-16T04:28:15.665Z,73.86
2017-04-16T04:28:41.150Z,73.1
2017-04-16T04:29:06.638Z,73
2017-04-16T04:29:32.131Z,73.48
2017-04-16T04:29:57.610Z,73.38
2017-04-16T04:30:23.100Z,73.38
2017-04-16T04:30:48.618Z,73.57
2017-04-16T04:31:14.090Z,73.38
2017-04-16T04:31:39.642Z,73.48
2017-04-16T04:32:05.080Z,73.48
2017-04-16T04:32:30.573Z,73.29
2017-04-16T04:32:56.108Z,73.48
2017-04-16T04:33:21.581Z,73.29
2017-04-16T04:33:47.088Z,73.38
2017-04-16T04:34:12.642Z,73.48
2017-04-16T04:34:38.100Z,73
2017-04-16T04:35:03.585Z,72.91
2017-04-16T04:35:29.049Z,73.19
2017-04-16T04:35:54.559Z,72.53
2017-04-16T04:36:20.036Z,72.53
2017-04-16T04:36:45.544Z,73.29
2017-04-16T04:37:11.040Z,72.44
2017-04-16T04:37:36.517Z,73.48
2017-04-16T04:38:01.987Z,73.48
2017-04-16T04:38:27.482Z,73.19
2017-04-16T04:38:52.962Z,73.48
2017-04-16T04:39:18.497Z,73.48
2017-04-16T04:39:43.988Z,73.38
2017-04-16T04:40:09.474Z,73
2017-04-16T04:40:34.976Z,73.29
2017-04-16T04:41:00.473Z,73.29
2017-04-16T04:41:25.954Z,73.48
2017-04-16T04:41:51.471Z,73.29
2017-04-16T04:42:16.967Z,73.29
2017-04-16T04:42:42.465Z,73.1
2017-04-16T04:43:07.971Z,73.1
2017-04-16T04:43:33.454Z,73.48
2017-04-16T04:43:58.947Z,73.48
2017-04-16T04:44:24.432Z,73.29
2017-04-16T04:44:49.948Z,73.48
2017-04-16T04:45:15.447Z,73.19
2017-04-16T04:45:40.958Z,73.86
2017-04-16T04:46:06.474Z,73.1
2017-04-16T04:46:31.953Z,73.29
2017-04-16T04:46:57.453Z,73.48
2017-04-16T04:47:22.987Z,73.19
2017-04-16T04:47:48.510Z,73.29
2017-04-16T04:48:13.988Z,73.48
2017-04-16T04:48:39.503Z,73.19
2017-04-16T04:49:04.978Z,73.19
2017-04-16T04:49:30.481Z,73.1
2017-04-16T04:49:56.020Z,73.86
2017-04-16T04:50:21.498Z,73.1
2017-04-16T04:50:47.029Z,73.38
2017-04-16T04:51:12.531Z,73.29
2017-04-16T04:51:38.015Z,73.29
2017-04-16T04:52:03.507Z,73.57
2017-04-16T04:52:28.995Z,73.19
2017-04-16T04:52:54.473Z,73.38
2017-04-16T04:53:19.990Z,73.38
2017-04-16T04:53:45.501Z,73.48
2017-04-16T04:54:11.011Z,73.29
2017-04-16T04:54:36.543Z,73.38
2017-04-16T04:55:02.097Z,73.38
2017-04-16T04:55:27.574Z,73.38
2017-04-16T04:55:53.092Z,73.29
2017-04-16T04:56:18.594Z,72.53
2017-04-16T04:56:44.101Z,73.1
2017-04-16T04:57:09.585Z,73.1
2017-04-16T04:57:35.089Z,73
2017-04-16T04:58:00.573Z,72.72
2017-04-16T04:58:26.067Z,72.81
2017-04-16T04:58:51.579Z,72.44
2017-04-16T04:59:17.077Z,73.1
2017-04-16T04:59:42.564Z,72.53
2017-04-16T05:00:08.062Z,72.63
2017-04-16T05:00:33.561Z,73
2017-04-16T05:00:59.051Z,73.29
2017-04-16T05:01:24.567Z,73.19
2017-04-16T05:01:50.043Z,73.57
2017-04-16T05:02:15.544Z,73.48
2017-04-16T05:02:41.027Z,73.19
2017-04-16T05:03:06.518Z,73
2017-04-16T05:03:32.023Z,73.1
2017-04-16T05:03:57.533Z,72.91
2017-04-16T05:04:23.010Z,72.72
2017-04-16T05:04:48.499Z,73
2017-04-16T05:05:14.005Z,72.53
2017-04-16T05:05:39.491Z,72.72
2017-04-16T05:06:04.971Z,73.19
2017-04-16T05:06:30.439Z,73
2017-04-16T05:06:55.916Z,73
2017-04-16T05:07:21.386Z,73.19
2017-04-16T05:07:46.874Z,73.29
2017-04-16T05:08:12.346Z,73.1
2017-04-16T05:08:37.807Z,72.53
2017-04-16T05:09:03.297Z,73.19
2017-04-16T05:09:28.812Z,72.91
2017-04-16T05:09:54.309Z,73.1
2017-04-16T05:10:19.779Z,72.81
2017-04-16T05:10:45.262Z,72.38
2017-04-16T05:11:10.777Z,72.34
2017-04-16T05:11:36.273Z,72.63
2017-04-16T05:12:01.761Z,72.85
2017-04-16T05:12:27.300Z,72.44
2017-04-16T05:12:52.803Z,72.56
2017-04-16T05:13:18.287Z,72.91
2017-04-16T05:13:43.792Z,72.56
2017-04-16T05:14:09.279Z,72.47
2017-04-16T05:14:34.801Z,72.44
2017-04-16T05:15:00.245Z,72.28
2017-04-16T05:15:25.726Z,72.25
2017-04-16T05:15:51.253Z,72.38
2017-04-16T05:16:16.742Z,72.34
2017-04-16T05:16:42.254Z,72.47
2017-04-16T05:17:07.724Z,72.47
2017-04-16T05:17:33.237Z,72.81
2017-04-16T05:17:58.726Z,72.75
2017-04-16T05:18:24.204Z,72.44
2017-04-16T05:18:49.714Z,72.56
2017-04-16T05:19:15.188Z,72.85
2017-04-16T05:19:40.670Z,72.72
2017-04-16T05:20:06.157Z,72.95
2017-04-16T05:20:31.726Z,72.28
2017-04-16T05:20:57.209Z,72.75
2017-04-16T05:21:22.742Z,72.95
2017-04-16T05:21:48.218Z,72.75
2017-04-16T05:22:13.683Z,72.56
2017-04-16T05:22:39.212Z,72.56
2017-04-16T05:23:04.698Z,72.72
2017-04-16T05:23:30.164Z,72.56
2017-04-16T05:23:55.646Z,72.66
2017-04-16T05:24:21.140Z,72.28
2017-04-16T05:24:46.615Z,72.19
2017-04-16T05:25:12.102Z,72.38
2017-04-16T05:25:37.609Z,72.47
2017-04-16T05:26:03.111Z,72.19
2017-04-16T05:26:28.602Z,72.09
2017-04-16T05:26:54.090Z,72.09
2017-04-16T05:27:19.596Z,72.38
2017-04-16T05:27:45.078Z,72.19
2017-04-16T05:28:10.579Z,72.19
2017-04-16T05:28:36.096Z,72.09
2017-04-16T05:29:01.601Z,72.19
2017-04-16T05:29:27.115Z,71.9
2017-04-16T05:29:52.608Z,72
2017-04-16T05:30:18.080Z,71.9
2017-04-16T05:30:43.559Z,71.81
2017-04-16T05:31:09.076Z,72.19
2017-04-16T05:31:34.562Z,72.28
2017-04-16T05:32:00.051Z,72.19
2017-04-16T05:32:25.545Z,71.9
2017-04-16T05:32:51.015Z,72.38
2017-04-16T05:33:16.496Z,72.09
2017-04-16T05:33:42.005Z,72.09
2017-04-16T05:34:07.479Z,72.47
2017-04-16T05:34:32.984Z,72
2017-04-16T05:34:58.452Z,71.62
2017-04-16T05:35:23.953Z,71.52
2017-04-16T05:35:49.445Z,71.81
2017-04-16T05:36:14.928Z,71.52
2017-04-16T05:36:40.415Z,71.62
2017-04-16T05:37:05.907Z,71.71
2017-04-16T05:37:31.400Z,71.9
2017-04-16T05:37:56.899Z,71.62
2017-04-16T05:38:22.380Z,71.9
2017-04-16T05:38:47.907Z,71.62
2017-04-16T05:39:13.429Z,71.9
2017-04-16T05:39:38.944Z,71.9
2017-04-16T05:40:04.444Z,71.81
2017-04-16T05:40:29.924Z,71.81
2017-04-16T05:40:55.448Z,71.81
2017-04-16T05:41:20.930Z,71.52
2017-04-16T05:41:46.437Z,71.52
2017-04-16T05:42:11.944Z,71.71
2017-04-16T05:42:37.430Z,71.33
2017-04-16T05:43:02.912Z,71.23
2017-04-16T05:43:28.425Z,71.52
2017-04-16T05:43:53.912Z,71.43
2017-04-16T05:44:19.400Z,71.71
2017-04-16T05:44:44.893Z,71.04
2017-04-16T05:45:10.488Z,71.33
2017-04-16T05:45:35.994Z,71.14
2017-04-16T05:46:01.462Z,71.04
2017-04-16T05:46:26.917Z,71.23
2017-04-16T05:46:52.427Z,71.14
2017-04-16T05:47:17.919Z,71.23
2017-04-16T05:47:43.431Z,71.33
2017-04-16T05:48:08.924Z,71.23
2017-04-16T05:48:34.432Z,71.33
2017-04-16T05:48:59.918Z,71.04
2017-04-16T05:49:25.441Z,71.14
2017-04-16T05:49:50.924Z,71.33
2017-04-16T05:50:16.418Z,71.23
2017-04-16T05:50:41.951Z,71.71
2017-04-16T05:51:07.435Z,71.62
2017-04-16T05:51:32.914Z,71.33
2017-04-16T05:51:58.403Z,71.04
2017-04-16T05:52:23.930Z,71.23
2017-04-16T05:52:49.457Z,71.23
2017-04-16T05:53:14.935Z,71.33
2017-04-16T05:53:40.420Z,71.14
2017-04-16T05:54:05.921Z,70.95
2017-04-16T05:54:31.428Z,71.43
2017-04-16T05:54:56.950Z,71.43
2017-04-16T05:55:22.438Z,71.52
2017-04-16T05:55:47.992Z,71.43
2017-04-16T05:56:13.492Z,71.52
2017-04-16T05:56:39.017Z,71.14
2017-04-16T05:57:04.527Z,71.33
2017-04-16T05:57:30.056Z,71.43
2017-04-16T05:57:55.554Z,71.52
2017-04-16T05:58:21.051Z,71.33
2017-04-16T05:58:46.521Z,71.23
2017-04-16T05:59:12.025Z,71.33
2017-04-16T05:59:37.513Z,71.14
2017-04-16T06:00:03.047Z,71.43
2017-04-16T06:00:28.540Z,71.23
2017-04-16T06:00:54.013Z,71.04
2017-04-16T06:01:19.528Z,70.95
2017-04-16T06:01:45.032Z,70.42
2017-04-16T06:02:10.535Z,70.61
2017-04-16T06:02:36.018Z,70.7
2017-04-16T06:03:01.540Z,70.7
2017-04-16T06:03:27.055Z,70.61
2017-04-16T06:03:52.576Z,70.23
2017-04-16T06:04:18.060Z,70.51
2017-04-16T06:04:43.539Z,70.42
2017-04-16T06:05:09.027Z,70.23
2017-04-16T06:05:34.536Z,70.61
2017-04-16T06:06:00.027Z,70.61
2017-04-16T06:06:25.524Z,70.61
2017-04-16T06:06:51.026Z,70.61
2017-04-16T06:07:16.504Z,70.04
2017-04-16T06:07:42.032Z,69.66
2017-04-16T06:08:07.541Z,69.75
2017-04-16T06:08:33.057Z,69.75
2017-04-16T06:08:58.560Z,69.75
2017-04-16T06:09:24.046Z,69.85
2017-04-16T06:09:49.554Z,69.75
2017-04-16T06:10:15.031Z,70.04
2017-04-16T06:10:40.528Z,69.75
2017-04-16T06:11:06.026Z,69.56
2017-04-16T06:11:31.510Z,68.9
2017-04-16T06:11:56.994Z,69.27
2017-04-16T06:12:22.527Z,69.27
2017-04-16T06:12:48.016Z,68.99
2017-04-16T06:13:13.540Z,69.37
2017-04-16T06:13:39.052Z,69.94
2017-04-16T06:14:04.543Z,69.94
2017-04-16T06:14:30.010Z,69.75
2017-04-16T06:14:55.525Z,69.56
2017-04-16T06:15:21.045Z,69.66
2017-04-16T06:15:46.530Z,69.66
2017-04-16T06:16:12.019Z,69.18
2017-04-16T06:16:37.571Z,69.09
2017-04-16T06:17:03.064Z,69.27
2017-04-16T06:17:28.574Z,69.27
2017-04-16T06:17:54.089Z,69.46
2017-04-16T06:18:19.583Z,69.37
2017-04-16T06:18:45.097Z,68.9
2017-04-16T06:19:10.575Z,68.71
2017-04-16T06:19:36.074Z,68.71
2017-04-16T06:20:01.576Z,68.71
2017-04-16T06:20:27.083Z,68.8
2017-04-16T06:20:52.581Z,68.99
2017-04-16T06:21:18.091Z,69.37
2017-04-16T06:21:43.586Z,69.46
2017-04-16T06:22:09.079Z,69.09
2017-04-16T06:22:34.582Z,68.9
2017-04-16T06:23:00.065Z,68.74
2017-04-16T06:23:25.539Z,68.84
2017-04-16T06:23:51.055Z,68.9
2017-04-16T06:24:16.569Z,69.46
2017-04-16T06:24:42.105Z,69.09
2017-04-16T06:25:07.648Z,69.09
2017-04-16T06:25:33.148Z,69.27
2017-04-16T06:25:58.640Z,69.18
2017-04-16T06:26:24.149Z,69.27
2017-04-16T06:26:49.636Z,68.99
2017-04-16T06:27:15.152Z,68.74
2017-04-16T06:27:40.635Z,68.9
2017-04-16T06:28:06.144Z,68.74
2017-04-16T06:28:31.665Z,69.02
2017-04-16T06:28:57.158Z,68.74
2017-04-16T06:29:22.660Z,69.18
2017-04-16T06:29:48.165Z,68.8
2017-04-16T06:30:13.653Z,68.93
2017-04-16T06:30:39.165Z,69.21
2017-04-16T06:31:04.644Z,69.31
2017-04-16T06:31:30.142Z,68.55
2017-04-16T06:31:55.616Z,69.02
2017-04-16T06:32:21.110Z,68.65
2017-04-16T06:32:46.616Z,68.65
2017-04-16T06:33:12.101Z,68.65
2017-04-16T06:33:37.592Z,68.84
2017-04-16T06:34:03.089Z,68.93
2017-04-16T06:34:28.563Z,68.74
2017-04-16T06:34:54.061Z,68.36
2017-04-16T06:35:19.546Z,68.36
2017-04-16T06:35:45.027Z,68.27
2017-04-16T06:36:10.514Z,67.98
2017-04-16T06:36:36.011Z,68.17
2017-04-16T06:37:01.496Z,68.07
2017-04-16T06:37:26.978Z,67.98
2017-04-16T06:37:52.474Z,68.07
2017-04-16T06:38:17.969Z,67.98
2017-04-16T06:38:43.463Z,68.07
2017-04-16T06:39:08.939Z,67.98
2017-04-16T06:39:34.461Z,68.07
2017-04-16T06:39:59.965Z,67.88
2017-04-16T06:40:25.485Z,67.88
2017-04-16T06:40:50.988Z,68.27
2017-04-16T06:41:16.489Z,67.98
2017-04-16T06:41:41.999Z,68.27
2017-04-16T06:42:07.480Z,68.27
2017-04-16T06:42:32.983Z,67.98
2017-04-16T06:42:58.490Z,67.6
2017-04-16T06:43:23.988Z,67.88
2017-04-16T06:43:49.484Z,68.07
2017-04-16T06:44:14.987Z,68.17
2017-04-16T06:44:40.502Z,67.88
2017-04-16T06:45:05.968Z,67.98
2017-04-16T06:45:31.472Z,68.65
2017-04-16T06:45:56.999Z,68.36
2017-04-16T06:46:22.523Z,68.55
2017-04-16T06:46:48.050Z,67.98
2017-04-16T06:47:13.594Z,67.98
2017-04-16T06:47:39.127Z,68.11
2017-04-16T06:48:04.684Z,68.21
2017-04-16T06:48:30.189Z,68.07
2017-04-16T06:48:55.696Z,67.88
2017-04-16T06:49:21.193Z,68.27
2017-04-16T06:49:46.716Z,68.17
2017-04-16T06:50:12.238Z,68.27
2017-04-16T06:50:37.729Z,68.21
2017-04-16T06:51:03.218Z,67.98
2017-04-16T06:51:28.715Z,68.11
2017-04-16T06:51:54.246Z,68.11
2017-04-16T06:52:19.739Z,67.63
2017-04-16T06:52:45.234Z,68.4
2017-04-16T06:53:10.723Z,67.82
2017-04-16T06:53:36.334Z,68.21
2017-04-16T06:54:01.811Z,68.01
2017-04-16T06:54:27.313Z,68.21
2017-04-16T06:54:52.810Z,68.21
2017-04-16T06:55:18.291Z,68.01
2017-04-16T06:55:43.851Z,67.25
2017-04-16T06:56:09.340Z,67.63
2017-04-16T06:56:34.796Z,67.07
2017-04-16T06:57:00.289Z,67.25
2017-04-16T06:57:25.787Z,67.16
2017-04-16T06:57:51.271Z,67.35
2017-04-16T06:58:16.779Z,68.01
2017-04-16T06:58:42.267Z,68.01
2017-04-16T06:59:07.783Z,67.82
2017-04-16T06:59:33.298Z,67.92
2017-04-16T06:59:58.790Z,67.63
2017-04-16T07:00:24.279Z,68.11
2017-04-16T07:00:49.753Z,68.01
2017-04-16T07:01:15.234Z,67.82
2017-04-16T07:01:40.724Z,67.63
2017-04-16T07:02:06.195Z,67.73
2017-04-16T07:02:31.705Z,67.73
2017-04-16T07:02:57.218Z,67.73
2017-04-16T07:03:22.732Z,67.63
2017-04-16T07:03:48.202Z,67.82
2017-04-16T07:04:13.672Z,68.01
2017-04-16T07:04:39.153Z,68.21
2017-04-16T07:05:04.642Z,68.21
2017-04-16T07:05:30.136Z,67.82
2017-04-16T07:05:55.623Z,68.24
2017-04-16T07:06:21.113Z,68.05
2017-04-16T07:06:46.585Z,67.35
2017-04-16T07:07:12.071Z,66.62
2017-04-16T07:07:37.555Z,66.53
2017-04-16T07:08:03.073Z,66.62
2017-04-16T07:08:28.571Z,66.68
2017-04-16T07:08:54.044Z,66.72
2017-04-16T07:09:19.563Z,66.81
2017-04-16T07:09:45.034Z,66.59
2017-04-16T07:10:10.531Z,66.53
2017-04-16T07:10:36.045Z,66.68
2017-04-16T07:11:01.520Z,66.49
2017-04-16T07:11:27.037Z,66.78
2017-04-16T07:11:52.581Z,66.68
2017-04-16T07:12:18.124Z,66.97
2017-04-16T07:12:43.710Z,66.59
2017-04-16T07:13:09.264Z,66.33
2017-04-16T07:13:34.763Z,66.24
2017-04-16T07:14:00.326Z,66.43
2017-04-16T07:14:25.855Z,66.14
2017-04-16T07:14:51.425Z,65.86
2017-04-16T07:15:17.086Z,66.24
2017-04-16T07:15:42.652Z,66.14
2017-04-16T07:16:08.182Z,65.95
2017-04-16T07:16:33.741Z,65.95
2017-04-16T07:16:59.265Z,65.86
2017-04-16T07:17:24.812Z,65.95
2017-04-16T07:17:50.422Z,65.95
2017-04-16T07:18:15.938Z,65.86
2017-04-16T07:18:41.454Z,65.38
2017-04-16T07:19:06.968Z,65.67
2017-04-16T07:19:32.498Z,65.1
2017-04-16T07:19:57.991Z,65.19
2017-04-16T07:20:23.537Z,65
2017-04-16T07:20:49.053Z,65.1
2017-04-16T07:21:14.598Z,65.1
2017-04-16T07:21:40.223Z,65.29
2017-04-16T07:22:05.725Z,65.1
2017-04-16T07:22:31.266Z,65
2017-04-16T07:22:56.734Z,65
2017-04-16T07:23:23.128Z,65
2017-04-16T07:23:48.592Z,64.72
2017-04-16T07:24:14.111Z,64.15
2017-04-16T07:24:39.600Z,64.24
2017-04-16T07:25:05.109Z,63.96
2017-04-16T07:25:30.588Z,63.86
2017-04-16T07:25:56.075Z,63.76
2017-04-16T07:26:21.562Z,63.96
2017-04-16T07:26:47.061Z,63.6
2017-04-16T07:27:12.559Z,63.23
2017-04-16T07:27:38.054Z,63.6
2017-04-16T07:28:03.525Z,63.51
2017-04-16T07:28:29.018Z,63.7
2017-04-16T07:28:54.523Z,63.13
2017-04-16T07:29:20.006Z,63.04
2017-04-16T07:29:45.476Z,63.39
2017-04-16T07:30:11.000Z,63.2
2017-04-16T07:30:36.496Z,63.32
2017-04-16T07:31:01.982Z,63.51
2017-04-16T07:31:27.481Z,63.32
2017-04-16T07:31:53.048Z,63.23
2017-04-16T07:32:18.568Z,62.94
2017-04-16T07:32:44.086Z,63.13
2017-04-16T07:33:09.599Z,62.75
2017-04-16T07:33:35.136Z,62.56
2017-04-16T07:34:00.605Z,62.12
2017-04-16T07:34:26.093Z,61.83
2017-04-16T07:34:51.613Z,61.93
2017-04-16T07:35:17.108Z,61.25
2017-04-16T07:35:42.607Z,60.66
2017-04-16T07:36:08.109Z,60.11
2017-04-16T07:36:33.595Z,60.18
2017-04-16T07:36:59.170Z,59.89
2017-04-16T07:37:24.646Z,60.18
2017-04-16T07:37:50.129Z,60.66
2017-04-16T07:38:15.614Z,60.37
2017-04-16T07:38:41.105Z,60.56
2017-04-16T07:39:06.625Z,59.99
2017-04-16T07:39:32.127Z,60.11
2017-04-16T07:39:57.626Z,59.92
2017-04-16T07:40:23.097Z,59.7
2017-04-16T07:40:48.576Z,60.02
2017-04-16T07:41:14.091Z,60.02
2017-04-16T07:41:39.613Z,59.92
2017-04-16T07:42:05.094Z,59.92
2017-04-16T07:42:30.636Z,59.16
2017-04-16T07:42:56.107Z,59.26
2017-04-16T07:43:21.620Z,58.97
2017-04-16T07:43:47.124Z,59.06
2017-04-16T07:44:12.645Z,59.45
2017-04-16T07:44:38.220Z,59.06
2017-04-16T07:45:03.688Z,58.69
2017-04-16T07:45:29.149Z,59.54
2017-04-16T07:45:54.619Z,59.26
2017-04-16T07:46:20.094Z,59.26
2017-04-16T07:46:45.608Z,59.26
2017-04-16T07:47:11.125Z,59.26
2017-04-16T07:47:36.619Z,59.26
2017-04-16T07:48:02.134Z,59.45
2017-04-16T07:48:27.632Z,59.35
2017-04-16T07:48:53.132Z,59.45
2017-04-16T07:49:18.617Z,58.87
2017-04-16T07:49:44.102Z,58.97
2017-04-16T07:50:09.619Z,59.06
2017-04-16T07:50:35.141Z,59.35
2017-04-16T07:51:00.639Z,58.5
2017-04-16T07:51:26.129Z,58.69
2017-04-16T07:51:51.624Z,59.26
2017-04-16T07:52:17.136Z,58.11
2017-04-16T07:52:42.665Z,58.3
2017-04-16T07:53:08.193Z,58.3
2017-04-16T07:53:33.667Z,58.02
2017-04-16T07:53:59.210Z,58.11
2017-04-16T07:54:24.697Z,58.3
2017-04-16T07:54:50.194Z,57.64
2017-04-16T07:55:15.688Z,57.76
2017-04-16T07:55:41.217Z,57.95
2017-04-16T07:56:06.703Z,57.73
2017-04-16T07:56:32.211Z,57.67
2017-04-16T07:56:57.722Z,57.64
2017-04-16T07:57:23.198Z,57.82
2017-04-16T07:57:48.696Z,57.73
2017-04-16T07:58:14.174Z,57.82
2017-04-16T07:58:39.671Z,57.57
2017-04-16T07:59:05.161Z,57.67
2017-04-16T07:59:30.674Z,57.73
2017-04-16T07:59:56.149Z,57.82
2017-04-16T08:00:21.665Z,57.73
2017-04-16T08:00:47.221Z,57.57
2017-04-16T08:01:12.785Z,57.48
2017-04-16T08:01:38.271Z,57.38
2017-04-16T08:02:03.775Z,57.48
2017-04-16T08:02:29.260Z,57.35
2017-04-16T08:02:54.779Z,57.26
2017-04-16T08:03:20.303Z,57.45
2017-04-16T08:03:45.807Z,57.45
2017-04-16T08:04:11.335Z,57.54
2017-04-16T08:04:36.831Z,57.76
2017-04-16T08:05:02.339Z,57.45
2017-04-16T08:05:27.818Z,57.92
2017-04-16T08:05:53.340Z,57.76
2017-04-16T08:06:18.849Z,57.92
2017-04-16T08:06:44.406Z,57.54
2017-04-16T08:07:09.892Z,57.92
2017-04-16T08:07:35.416Z,57.76
2017-04-16T08:08:00.908Z,57.38
2017-04-16T08:08:26.414Z,57.09
2017-04-16T08:08:51.873Z,57.57
2017-04-16T08:09:17.406Z,56.62
2017-04-16T08:09:42.881Z,57.09
2017-04-16T08:10:08.379Z,57.09
2017-04-16T08:10:33.872Z,56.9
2017-04-16T08:10:59.394Z,56.62
2017-04-16T08:11:24.898Z,56.81
2017-04-16T08:11:50.406Z,57
2017-04-16T08:12:15.952Z,56.81
2017-04-16T08:12:41.465Z,56.81
2017-04-16T08:13:06.956Z,56.71
2017-04-16T08:13:32.463Z,56.24
2017-04-16T08:13:57.964Z,56.24
2017-04-16T08:14:23.467Z,56.14
2017-04-16T08:14:48.973Z,56.33
2017-04-16T08:15:14.484Z,56.24
2017-04-16T08:15:39.938Z,56.14
2017-04-16T08:16:05.452Z,56.14
2017-04-16T08:16:30.971Z,56.43
2017-04-16T08:16:56.541Z,56.43
2017-04-16T08:17:22.066Z,56.52
2017-04-16T08:17:47.553Z,56.71
2017-04-16T08:18:13.069Z,56.14
2017-04-16T08:18:38.580Z,56.71
2017-04-16T08:19:04.076Z,56.52
2017-04-16T08:19:29.556Z,56.71
2017-04-16T08:19:55.079Z,56.81
2017-04-16T08:20:20.584Z,56.04
2017-04-16T08:20:46.115Z,56.07
2017-04-16T08:21:11.639Z,56.04
2017-04-16T08:21:37.125Z,55.57
2017-04-16T08:22:02.632Z,55.76
2017-04-16T08:22:28.117Z,55.57
2017-04-16T08:22:53.600Z,55.28
2017-04-16T08:23:19.097Z,55.21
2017-04-16T08:23:44.578Z,55.09
2017-04-16T08:24:10.106Z,54.93
2017-04-16T08:24:35.604Z,54.45
2017-04-16T08:25:01.126Z,53.95
2017-04-16T08:25:26.635Z,53.5
2017-04-16T08:25:52.125Z,54.07
2017-04-16T08:26:17.648Z,53.31
2017-04-16T08:26:43.158Z,53.21
2017-04-16T08:27:08.638Z,53.59
2017-04-16T08:27:34.127Z,53.02
2017-04-16T08:27:59.636Z,53.02
2017-04-16T08:28:25.123Z,52.64
2017-04-16T08:28:50.617Z,53.12
2017-04-16T08:29:16.126Z,53.47
2017-04-16T08:29:41.710Z,52.61
2017-04-16T08:30:07.219Z,52.23
2017-04-16T08:30:32.717Z,52.04
2017-04-16T08:30:58.240Z,52.14
2017-04-16T08:31:23.732Z,52.33
2017-04-16T08:31:49.253Z,52.61
2017-04-16T08:32:14.731Z,53.09
2017-04-16T08:32:40.195Z,52.42
2017-04-16T08:33:05.673Z,52.8
2017-04-16T08:33:31.138Z,52.8
2017-04-16T08:33:56.594Z,53
2017-04-16T08:34:22.075Z,53.38
2017-04-16T08:34:47.528Z,53.85
2017-04-16T08:35:13.009Z,53.28
2017-04-16T08:35:38.480Z,52.9
2017-04-16T08:36:04.116Z,52.9
2017-04-16T08:36:29.741Z,52.73
2017-04-16T08:36:55.668Z,53.09
2017-04-16T08:37:21.340Z,53.47
2017-04-16T08:37:46.806Z,53.95
2017-04-16T08:38:12.267Z,54.04
2017-04-16T08:38:37.789Z,54.52
2017-04-16T08:39:03.264Z,54.36
2017-04-16T08:39:28.781Z,53.95
2017-04-16T08:39:54.337Z,53.88
2017-04-16T08:40:19.870Z,53.12
2017-04-16T08:40:45.399Z,53.41
2017-04-16T08:41:11.415Z,53.31
2017-04-16T08:41:36.986Z,53.21
2017-04-16T08:42:02.771Z,52.45
2017-04-16T08:42:28.213Z,52.16
2017-04-16T08:42:53.697Z,51.78
2017-04-16T08:43:19.183Z,51.97
2017-04-16T08:43:44.682Z,51.68
2017-04-16T08:44:10.196Z,51.02
2017-04-16T08:44:35.724Z,50.92
2017-04-16T08:45:01.218Z,50.45
2017-04-16T08:45:26.794Z,49.87
2017-04-16T08:45:52.375Z,50.26
2017-04-16T08:46:17.902Z,49.87
2017-04-16T08:46:43.421Z,49.97
2017-04-16T08:47:08.933Z,50.35
2017-04-16T08:47:34.476Z,50.35
2017-04-16T08:47:59.979Z,50.07
2017-04-16T08:48:25.472Z,50.45
2017-04-16T08:48:51.008Z,50.92
2017-04-16T08:49:16.553Z,50.45
2017-04-16T08:49:42.085Z,50.35
2017-04-16T08:50:07.618Z,50.63
2017-04-16T08:50:33.109Z,50.54
2017-04-16T08:50:58.598Z,50.54
2017-04-16T08:51:24.087Z,50.73
2017-04-16T08:51:49.566Z,50.92
2017-04-16T08:52:15.060Z,50.92
2017-04-16T08:52:40.610Z,50.92
2017-04-16T08:53:06.261Z,50.92
2017-04-16T08:53:31.801Z,50.45
2017-04-16T08:53:57.294Z,49.97
2017-04-16T08:54:22.797Z,50.16
2017-04-16T08:54:48.287Z,49.87
2017-04-16T08:55:13.813Z,49.78
2017-04-16T08:55:39.299Z,49.68
2017-04-16T08:56:04.808Z,49.4
2017-04-16T08:56:30.271Z,49.4
2017-04-16T08:56:55.788Z,49.11
2017-04-16T08:57:21.303Z,49.4
2017-04-16T08:57:46.835Z,49.21
2017-04-16T08:58:12.356Z,49.78
2017-04-16T08:58:37.850Z,49.3
2017-04-16T08:59:03.342Z,49.87
2017-04-16T08:59:28.832Z,49.78
2017-04-16T08:59:54.359Z,48.92
2017-04-16T09:00:19.831Z,48.73
2017-04-16T09:00:45.335Z,48.73
2017-04-16T09:01:10.913Z,48.94
2017-04-16T09:01:36.354Z,48.18
2017-04-16T09:02:01.843Z,48.25
2017-04-16T09:02:27.363Z,48.08
2017-04-16T09:02:52.886Z,48.37
2017-04-16T09:03:18.389Z,48.18
2017-04-16T09:03:43.895Z,48.37
2017-04-16T09:04:09.380Z,48.75
2017-04-16T09:04:34.872Z,48.37
2017-04-16T09:05:00.401Z,48.85
2017-04-16T09:05:25.866Z,48.94
2017-04-16T09:05:51.382Z,49.04
2017-04-16T09:06:16.867Z,48.57
2017-04-16T09:06:42.369Z,47.71
2017-04-16T09:07:07.845Z,47.23
2017-04-16T09:07:33.344Z,47.23
2017-04-16T09:07:58.842Z,47.32
2017-04-16T09:08:24.319Z,47.52
2017-04-16T09:08:49.853Z,47.3
2017-04-16T09:09:15.372Z,47.52
2017-04-16T09:09:40.897Z,48.28
2017-04-16T09:10:06.421Z,48.94
2017-04-16T09:10:31.980Z,48.37
2017-04-16T09:10:57.469Z,47.52
2017-04-16T09:11:22.940Z,46.75
2017-04-16T09:11:48.448Z,46.94
2017-04-16T09:12:13.951Z,46.87
2017-04-16T09:12:39.449Z,47.03
2017-04-16T09:13:04.925Z,47.32
2017-04-16T09:13:30.429Z,47.34
2017-04-16T09:13:55.925Z,47.42
2017-04-16T09:14:21.432Z,47.23
2017-04-16T09:14:46.924Z,46.97
2017-04-16T09:15:12.410Z,47.03
2017-04-16T09:15:37.932Z,47.03
2017-04-16T09:16:03.410Z,46.37
2017-04-16T09:16:28.900Z,46.47
2017-04-16T09:16:54.524Z,46.18
2017-04-16T09:17:20.040Z,46.56
2017-04-16T09:17:45.554Z,46.37
2017-04-16T09:18:11.071Z,46.27
2017-04-16T09:18:36.614Z,46.94
2017-04-16T09:19:02.062Z,46.84
2017-04-16T09:19:27.578Z,47.03
2017-04-16T09:19:53.030Z,47.13
2017-04-16T09:20:18.494Z,47.03
2017-04-16T09:20:43.951Z,46.37
2017-04-16T09:21:09.419Z,45.7
2017-04-16T09:21:34.899Z,45.42
2017-04-16T09:22:00.361Z,44.94
2017-04-16T09:22:25.828Z,45.63
2017-04-16T09:22:51.293Z,45.63
2017-04-16T09:23:16.762Z,46.2
2017-04-16T09:23:42.295Z,46.58
2017-04-16T09:24:07.827Z,45.7
2017-04-16T09:24:33.753Z,45.7
2017-04-16T09:24:59.803Z,45.82
2017-04-16T09:25:25.532Z,45.51
2017-04-16T09:25:51.006Z,45.42
2017-04-16T09:26:16.861Z,45.22
2017-04-16T09:26:42.383Z,45.13
2017-04-16T09:27:07.838Z,45.32
2017-04-16T09:27:33.346Z,45.15
2017-04-16T09:27:58.871Z,44.67
2017-04-16T09:28:24.367Z,44.27
2017-04-16T09:28:49.892Z,44.08
2017-04-16T09:29:15.382Z,44.1
2017-04-16T09:29:40.953Z,43.91
2017-04-16T09:30:06.450Z,43.98
2017-04-16T09:30:32.567Z,43.6